Time;durP1;ratioP1;P1;durP2;ratioP2;P2;SDS_P1;SDS_P2;PMS_P1;PMS_P2;Temp;Humidity;BMP_temperature;BMP_pressure;BME280_temperature;BME280_humidity;BME280_pressure;Samples;Min_cycle;Max_cycle;Signal;HPM_P1;HPM_P2
2021/08/10 00:00:12;;;;;;;1.47;0.90;;;14.50;99.90;;;12.56;100.00;99718.41;3571124;39;20323;-81
2021/08/10 00:03:23;;;;;;;1.33;1.20;;;14.50;99.90;;;12.68;100.00;99721.47;3579993;39;21202;-83
2021/08/10 00:06:36;;;;;;;2.07;1.30;;;14.50;99.90;;;12.67;100.00;99722.47;3571727;39;20351;-83
2021/08/10 00:09:48;;;;;;;3.37;1.73;;;15.40;99.90;;;12.73;100.00;99729.81;3579594;39;20248;-82
2021/08/10 00:13:00;;;;;;;1.50;1.13;;;14.60;99.90;;;12.87;100.00;99738.84;3578449;39;20301;-83
2021/08/10 00:16:11;;;;;;;2.23;1.40;;;15.30;99.90;;;13.01;100.00;99740.69;3579450;39;20291;-83
2021/08/10 00:19:23;;;;;;;2.17;1.10;;;14.70;99.90;;;13.14;100.00;99748.94;3568147;39;20713;-81
2021/08/10 00:22:37;;;;;;;1.20;1.10;;;14.80;99.90;;;13.15;100.00;99747.94;3569348;39;20322;-81
2021/08/10 00:25:48;;;;;;;0.80;0.80;;;14.90;99.90;;;13.20;100.00;99745.53;3579036;39;20341;-82
2021/08/10 00:29:00;;;;;;;1.80;1.60;;;15.00;99.90;;;13.29;100.00;99741.69;3577571;39;20744;-81
2021/08/10 00:32:11;;;;;;;3.40;1.20;;;16.00;99.90;;;13.37;100.00;99739.91;3590799;39;20256;-81
2021/08/10 00:35:24;;;;;;;1.13;0.90;;;15.30;99.90;;;13.32;100.00;99735.13;3589102;39;20348;-82
2021/08/10 00:38:38;;;;;;;1.93;1.20;;;15.20;99.90;;;13.48;100.00;99732.19;3580458;39;20304;-83
2021/08/10 00:41:51;;;;;;;1.27;1.17;;;15.30;99.90;;;13.42;100.00;99738.31;3565871;39;20272;-82
2021/08/10 00:45:03;;;;;;;1.17;1.08;;;15.30;99.90;;;13.50;100.00;99734.69;3570303;39;20675;-82
2021/08/10 00:48:18;;;;;;;3.00;1.40;;;16.10;99.90;;;13.56;100.00;99728.56;3568405;39;20284;-83
2021/08/10 00:51:32;;;;;;;2.28;1.23;;;15.40;99.90;;;13.77;100.00;99728.56;3577573;39;20283;-82
2021/08/10 00:54:49;;;;;;;2.22;1.58;;;15.40;99.90;;;13.65;100.00;99727.41;3570116;39;20987;-82
2021/08/10 00:58:01;;;;;;;3.33;1.33;;;15.40;99.90;;;13.63;100.00;99732.13;3559353;39;20261;-82
2021/08/10 01:01:13;;;;;;;1.13;1.00;;;15.50;99.90;;;13.64;100.00;99726.56;3558770;39;20524;-81
2021/08/10 01:04:26;;;;;;;2.10;1.50;;;15.50;99.90;;;13.76;100.00;99734.94;3561034;39;20709;-82
2021/08/10 01:07:48;;;;;;;2.30;1.48;;;15.50;99.90;;;13.73;100.00;99726.44;3576162;39;20860;-81
2021/08/10 01:11:15;;;;;;;0.88;0.88;;;15.50;99.90;;;13.72;100.00;99730.16;3558266;39;20503;-82
2021/08/10 01:14:38;;;;;;;4.20;1.25;;;15.50;99.90;;;13.73;100.00;99732.66;3557812;39;20259;-83
2021/08/10 01:18:04;;;;;;;1.00;1.00;;;15.50;99.90;;;13.66;100.00;99723.69;3557646;39;20271;-81
2021/08/10 01:21:46;;;;;;;0.87;0.87;;;15.50;99.90;;;13.65;100.00;99725.53;3558281;39;20712;-82
2021/08/10 01:25:08;;;;;;;1.27;0.82;;;15.50;99.90;;;13.77;100.00;99728.56;3566674;39;20292;-83
2021/08/10 01:28:40;;;;;;;1.67;1.30;;;15.50;99.90;;;13.73;100.00;99727.25;3558326;39;20249;-82
2021/08/10 01:31:57;;;;;;;2.08;1.35;;;15.40;99.90;;;13.42;100.00;99729.44;3566951;39;20271;-83
2021/08/10 01:35:11;;;;;;;5.15;1.27;;;15.40;99.90;;;13.36;100.00;99733.69;3564300;39;20325;-82
2021/08/10 01:38:27;;;;;;;1.58;1.17;;;15.40;99.90;;;13.35;100.00;99739.28;3567994;39;20556;-81
2021/08/10 01:41:41;;;;;;;4.10;1.43;;;15.30;99.90;;;13.36;100.00;99743.59;3575383;39;20253;-83
2021/08/10 01:44:57;;;;;;;1.23;0.98;;;15.20;99.90;;;13.23;100.00;99746.97;3559900;39;20445;-82
2021/08/10 01:48:14;;;;;;;2.17;1.33;;;15.10;99.90;;;13.06;100.00;99761.63;3563492;39;20330;-82
2021/08/10 01:51:30;;;;;;;4.13;0.93;;;15.10;99.90;;;13.03;100.00;99772.72;3568170;39;20365;-81
2021/08/10 01:54:45;;;;;;;1.90;1.27;;;15.00;99.90;;;12.96;100.00;99780.72;3559668;39;20328;-82
2021/08/10 01:58:01;;;;;;;2.63;1.30;;;15.00;99.90;;;13.00;100.00;99783.84;3558536;39;20354;-83
2021/08/10 02:01:14;;;;;;;1.58;1.33;;;14.90;99.90;;;13.01;100.00;99791.72;3558592;39;20475;-81
2021/08/10 02:04:30;;;;;;;2.80;1.20;;;14.90;99.90;;;13.10;100.00;99800.53;3557321;39;21311;-81
2021/08/10 02:07:43;;;;;;;1.33;1.17;;;15.00;99.90;;;13.14;100.00;99807.16;3563606;39;20248;-81
2021/08/10 02:10:58;;;;;;;2.20;1.40;;;15.00;99.90;;;13.16;100.00;99821.28;3566037;39;21173;-82
2021/08/10 02:14:11;;;;;;;1.37;1.17;;;15.00;99.90;;;13.19;100.00;99829.81;3558337;39;20682;-81
2021/08/10 02:17:27;;;;;;;2.50;1.53;;;15.00;99.90;;;13.15;100.00;99839.25;3566785;39;20456;-82
2021/08/10 02:20:50;;;;;;;1.42;1.27;;;14.90;99.90;;;13.09;100.00;99860.63;3562733;39;20865;-82
2021/08/10 02:24:05;;;;;;;2.87;1.60;;;16.00;99.90;;;12.81;100.00;99861.25;3558277;39;20312;-83
2021/08/10 02:27:26;;;;;;;2.40;1.77;;;14.80;99.90;;;12.78;100.00;99874.19;3559248;39;20264;-81
2021/08/10 02:30:41;;;;;;;1.93;1.37;;;14.80;99.90;;;12.73;100.00;99898.09;3558516;39;20284;-81
2021/08/10 02:33:56;;;;;;;2.53;1.43;;;14.60;99.90;;;12.65;100.00;99896.28;3560756;39;20287;-81
2021/08/10 02:37:15;;;;;;;1.97;1.50;;;14.50;99.90;;;12.59;100.00;99888.97;3568548;39;20725;-82
2021/08/10 02:40:30;;;;;;;1.90;1.20;;;14.40;99.90;;;12.68;100.00;99897.78;3589493;39;20252;-81
2021/08/10 02:43:53;;;;;;;1.70;1.33;;;14.30;99.90;;;12.68;100.00;99893.25;3583507;39;20397;-82
2021/08/10 02:47:05;;;;;;;1.20;1.10;;;14.20;99.90;;;12.60;100.00;99896.00;3559489;39;20377;-82
2021/08/10 02:50:19;;;;;;;1.17;1.07;;;14.20;99.90;;;12.45;100.00;99887.91;3559312;39;20252;-81
2021/08/10 02:53:32;;;;;;;1.93;1.50;;;14.10;99.90;;;12.49;100.00;99904.47;3577447;39;20608;-81
2021/08/10 02:56:51;;;;;;;2.17;1.53;;;14.00;99.90;;;12.46;100.00;99913.72;3569352;39;20278;-81
2021/08/10 03:00:11;;;;;;;2.50;1.43;;;14.00;99.90;;;12.34;100.00;99930.41;3568609;39;20244;-82
2021/08/10 03:03:30;;;;;;;1.40;1.30;;;13.90;99.90;;;12.17;100.00;99945.78;3579564;39;20378;-81
2021/08/10 03:06:45;;;;;;;1.53;1.13;;;13.90;99.90;;;12.09;100.00;99965.44;3559527;39;20751;-81
2021/08/10 03:10:02;;;;;;;2.03;1.60;;;13.80;99.90;;;12.05;100.00;99974.84;3559042;39;20280;-83
2021/08/10 03:13:16;;;;;;;2.67;1.47;;;13.70;99.90;;;12.00;100.00;99997.81;3558414;39;20551;-81
2021/08/10 03:16:30;;;;;;;2.20;1.67;;;14.20;99.90;;;11.96;100.00;100028.69;3559295;39;20363;-82
2021/08/10 03:19:45;;;;;;;1.57;1.47;;;14.20;99.90;;;11.93;100.00;100051.31;3558842;39;20583;-82
2021/08/10 03:23:01;;;;;;;1.70;1.23;;;13.80;99.90;;;11.89;100.00;100084.81;3561530;39;20385;-81
2021/08/10 03:26:18;;;;;;;2.23;1.60;;;13.50;99.90;;;11.84;100.00;100103.28;3579160;39;20309;-82
2021/08/10 03:29:32;;;;;;;1.50;1.20;;;13.50;99.90;;;11.88;100.00;100109.97;3580898;39;20488;-82
2021/08/10 03:32:45;;;;;;;2.17;1.20;;;12.90;99.90;;;11.92;100.00;100097.06;3563518;39;20358;-83
2021/08/10 03:35:58;;;;;;;3.33;1.77;;;13.40;99.90;;;11.85;100.00;100103.13;3559253;39;20636;-82
2021/08/10 03:39:12;;;;;;;2.70;1.70;;;13.40;99.90;;;11.79;100.00;100101.09;3571059;39;20369;-83
2021/08/10 03:42:25;;;;;;;1.67;1.43;;;13.60;99.90;;;11.92;100.00;100102.41;3599032;39;20525;-82
2021/08/10 03:45:38;;;;;;;2.23;1.37;;;13.30;99.90;;;11.93;100.00;100104.94;3599505;39;20475;-83
2021/08/10 03:48:54;;;;;;;2.57;1.63;;;13.30;99.90;;;11.80;100.00;100104.63;3564287;39;20280;-82
2021/08/10 03:52:08;;;;;;;1.47;1.00;;;13.40;99.90;;;11.78;100.00;100107.47;3568025;39;20260;-82
2021/08/10 03:55:21;;;;;;;3.60;1.43;;;13.30;99.90;;;11.63;100.00;100109.13;3579053;39;20610;-82
2021/08/10 03:58:38;;;;;;;1.70;1.30;;;13.90;99.90;;;11.69;100.00;100119.19;3568812;39;20276;-83
2021/08/10 04:01:53;;;;;;;2.53;1.87;;;13.30;99.90;;;11.69;100.00;100129.91;3568138;39;20279;-83
2021/08/10 04:05:09;;;;;;;1.63;1.40;;;14.40;99.90;;;11.84;100.00;100136.28;3570958;39;20263;-83
2021/08/10 04:08:23;;;;;;;1.20;1.00;;;13.30;99.90;;;11.86;100.00;100126.25;3559348;39;20617;-84
2021/08/10 04:11:36;;;;;;;1.73;1.50;;;13.30;99.90;;;12.14;100.00;100121.28;3561189;39;20685;-82
2021/08/10 04:14:58;;;;;;;2.33;1.67;;;13.20;99.90;;;12.16;100.00;100103.19;3568092;39;20673;-81
2021/08/10 04:18:12;;;;;;;2.33;1.90;;;14.40;99.90;;;12.32;100.00;100102.31;3568390;39;20327;-81
2021/08/10 04:21:28;;;;;;;2.07;1.90;;;13.80;99.90;;;12.33;100.00;100082.50;3569390;39;20487;-84
2021/08/10 04:24:39;;;;;;;2.07;1.47;;;13.30;99.90;;;12.31;100.00;100064.91;3579865;39;20454;-83
2021/08/10 04:27:52;;;;;;;2.57;1.47;;;13.30;99.90;;;12.49;100.00;100058.25;3572298;39;20347;-82
2021/08/10 04:31:06;;;;;;;3.70;1.50;;;13.40;99.90;;;12.70;100.00;100046.09;3572240;39;20285;-83
2021/08/10 04:34:18;;;;;;;4.13;1.80;;;13.40;99.90;;;12.67;100.00;100016.91;3568160;39;20268;-81
2021/08/10 04:37:30;;;;;;;1.57;1.40;;;13.50;99.90;;;12.88;100.00;99987.53;3564843;39;20498;-83
2021/08/10 04:40:42;;;;;;;3.57;1.50;;;13.60;99.90;;;12.79;100.00;99962.63;3562148;39;20640;-82
2021/08/10 04:43:54;;;;;;;2.03;1.53;;;13.60;99.90;;;12.99;100.00;99948.66;3579509;39;20825;-83
2021/08/10 04:47:08;;;;;;;2.40;1.30;;;13.70;99.90;;;13.00;100.00;99918.13;3585667;39;20248;-83
2021/08/10 04:50:23;;;;;;;3.77;1.20;;;14.30;99.90;;;12.99;100.00;99890.41;3588935;39;20254;-83
2021/08/10 04:53:36;;;;;;;1.70;1.50;;;13.90;99.90;;;13.05;100.00;99870.06;3580481;39;20770;-83
2021/08/10 04:56:49;;;;;;;1.67;1.50;;;14.00;99.90;;;13.09;100.00;99853.41;3575852;39;21112;-83
2021/08/10 05:00:01;;;;;;;1.73;1.50;;;14.00;99.90;;;13.29;100.00;99830.34;3578256;39;20787;-84
2021/08/10 05:03:16;;;;;;;1.40;1.30;;;14.10;99.90;;;13.60;100.00;99805.91;3568301;39;20570;-83
2021/08/10 05:06:29;;;;;;;1.60;1.33;;;14.30;99.90;;;13.83;100.00;99786.13;3579250;39;20264;-84
2021/08/10 05:09:42;;;;;;;1.57;1.40;;;14.50;99.90;;;14.33;100.00;99764.44;3577211;39;20928;-80
2021/08/10 05:12:55;;;;;;;3.73;2.10;;;14.70;99.90;;;14.49;100.00;99735.59;3567886;39;20268;-83
2021/08/10 05:16:07;;;;;;;1.90;1.70;;;14.90;99.90;;;13.95;100.00;99709.28;3570485;39;21012;-83
2021/08/10 05:19:20;;;;;;;3.75;2.17;;;15.10;99.90;;;14.12;100.00;99686.44;3558429;39;20688;-81
2021/08/10 05:22:33;;;;;;;2.73;1.80;;;15.40;99.90;;;14.05;100.00;99672.13;3574157;39;20292;-81
2021/08/10 05:25:44;;;;;;;2.30;1.40;;;15.50;99.90;;;13.98;100.00;99658.59;3571055;39;20511;-82
2021/08/10 05:28:56;;;;;;;2.17;1.60;;;15.60;99.90;;;14.12;100.00;99654.16;3579396;39;20547;-83
2021/08/10 05:32:09;;;;;;;1.38;1.10;;;15.70;99.90;;;14.17;100.00;99651.72;3568683;39;20271;-80
2021/08/10 05:35:23;;;;;;;1.23;1.13;;;15.80;99.90;;;14.17;100.00;99645.50;3579249;39;20277;-82
2021/08/10 05:38:36;;;;;;;2.17;1.23;;;15.90;99.90;;;14.29;100.00;99649.31;3569784;39;20454;-82
2021/08/10 05:41:48;;;;;;;2.90;1.42;;;16.00;99.90;;;14.52;100.00;99649.88;3567851;39;20312;-83
2021/08/10 05:45:00;;;;;;;1.20;0.90;;;16.10;99.90;;;14.64;100.00;99648.28;3565720;39;20265;-83
2021/08/10 05:48:12;;;;;;;1.48;1.33;;;16.20;99.90;;;14.78;100.00;99646.50;3587447;39;20323;-82
2021/08/10 05:51:29;;;;;;;3.25;1.48;;;16.40;99.90;;;14.83;100.00;99654.00;3573882;39;20657;-82
2021/08/10 05:54:41;;;;;;;1.52;1.40;;;16.50;99.90;;;14.90;100.00;99652.13;3568024;39;20361;-83
2021/08/10 05:57:53;;;;;;;2.92;1.15;;;16.60;99.90;;;14.70;100.00;99655.59;3569339;39;20260;-83
2021/08/10 06:01:05;;;;;;;2.33;1.30;;;16.70;99.90;;;14.85;100.00;99652.72;3566689;39;20586;-82
2021/08/10 06:04:17;;;;;;;1.90;1.50;;;16.80;99.90;;;15.10;100.00;99658.41;3558524;39;20257;-83
2021/08/10 06:07:32;;;;;;;2.15;1.27;;;16.90;99.90;;;15.23;100.00;99660.31;3565593;39;20261;-83
2021/08/10 06:10:45;;;;;;;1.27;1.17;;;17.00;99.90;;;15.28;100.00;99665.94;3562305;39;20282;-82
2021/08/10 06:13:57;;;;;;;4.70;1.33;;;18.20;99.90;;;15.34;100.00;99668.63;3565956;39;21083;-83
2021/08/10 06:17:10;;;;;;;1.88;1.40;;;17.30;99.90;;;15.26;100.00;99670.69;3560116;39;20360;-83
2021/08/10 06:20:23;;;;;;;1.35;1.00;;;17.40;99.90;;;15.34;100.00;99674.03;3563055;39;20266;-82
2021/08/10 06:23:36;;;;;;;1.80;1.27;;;17.50;99.90;;;15.49;100.00;99673.84;3578928;39;20681;-83
2021/08/10 06:26:49;;;;;;;1.38;1.23;;;17.70;99.90;;;15.69;100.00;99680.16;3568516;39;20248;-82
2021/08/10 06:30:01;;;;;;;1.38;1.08;;;17.50;99.90;;;15.70;100.00;99683.69;3566825;39;20410;-84
2021/08/10 06:33:13;;;;;;;1.52;0.88;;;17.70;99.90;;;15.77;100.00;99682.66;3579572;39;20612;-83
2021/08/10 06:36:25;;;;;;;1.10;1.10;;;17.70;99.90;;;16.32;100.00;99691.34;3558483;39;20988;-84
2021/08/10 06:39:39;;;;;;;1.00;0.70;;;17.90;99.90;;;16.59;100.00;99686.72;3570438;39;20618;-82
2021/08/10 06:43:02;;;;;;;1.48;1.00;;;18.10;99.90;;;16.63;100.00;99695.28;3566085;39;20284;-84
2021/08/10 06:46:14;;;;;;;1.67;1.15;;;18.20;99.90;;;16.81;100.00;99709.75;3571096;39;20248;-83
2021/08/10 06:49:26;;;;;;;3.03;1.00;;;19.20;99.90;;;17.08;100.00;99717.78;3564351;39;20554;-83
2021/08/10 06:52:39;;;;;;;1.20;0.82;;;18.60;99.90;;;17.01;100.00;99742.13;3556822;39;20253;-82
2021/08/10 06:55:55;;;;;;;0.80;0.75;;;18.80;99.90;;;17.19;100.00;99760.34;3556994;39;20469;-82
2021/08/10 06:59:09;;;;;;;1.13;0.93;;;19.10;99.90;;;17.60;100.00;99776.22;3566387;39;20249;-83
2021/08/10 07:02:21;;;;;;;0.98;0.68;;;19.20;99.90;;;17.70;100.00;99810.94;3562569;39;21134;-83
2021/08/10 07:05:35;;;;;;;1.05;0.63;;;19.30;99.90;;;17.81;100.00;99824.63;3567645;39;20296;-82
2021/08/10 07:08:48;;;;;;;1.10;0.90;;;19.50;99.90;;;17.89;100.00;99828.97;3567458;39;20354;-84
2021/08/10 07:12:01;;;;;;;0.50;0.50;;;20.10;99.90;;;17.77;100.00;99842.34;3573248;39;20909;-84
2021/08/10 07:15:17;;;;;;;1.73;1.15;;;19.90;99.90;;;17.80;100.00;99841.91;3580020;39;20646;-84
2021/08/10 07:18:32;;;;;;;1.02;0.90;;;19.90;99.90;;;17.76;100.00;99847.97;3566089;39;20550;-82
2021/08/10 07:21:50;;;;;;;7.53;1.27;;;20.10;99.90;;;17.85;100.00;99849.38;3564168;39;21064;-83
2021/08/10 07:25:05;;;;;;;0.55;0.47;;;20.10;99.90;;;18.10;100.00;99865.69;3566587;39;20734;-83
2021/08/10 07:28:20;;;;;;;0.98;0.57;;;20.30;99.90;;;18.27;100.00;99875.81;3568014;39;20669;-84
2021/08/10 07:31:32;;;;;;;3.50;0.77;;;20.50;99.90;;;18.33;100.00;99905.75;3568298;39;20680;-84
2021/08/10 07:34:48;;;;;;;1.00;0.90;;;20.70;99.90;;;18.37;100.00;99913.25;3569454;39;20776;-83
2021/08/10 07:38:05;;;;;;;1.15;0.95;;;20.90;99.90;;;19.32;100.00;99906.66;3556110;39;20253;-83
2021/08/10 07:41:28;;;;;;;0.65;0.65;;;21.10;99.90;;;19.28;100.00;99961.59;3574667;39;20667;-84
2021/08/10 07:44:45;;;;;;;1.33;0.80;;;21.40;99.90;;;19.37;100.00;100003.66;3557254;40;20600;-83
2021/08/10 07:47:57;;;;;;;1.13;0.90;;;21.70;99.90;;;19.43;100.00;100040.75;3568113;39;20729;-83
2021/08/10 07:51:13;;;;;;;2.63;0.77;;;21.80;99.90;;;19.52;100.00;100149.91;3556789;39;20474;-82
2021/08/10 07:54:25;;;;;;;1.30;1.13;;;22.00;99.90;;;19.39;100.00;100153.50;3554879;40;20498;-82
2021/08/10 07:57:37;;;;;;;1.17;0.70;;;22.00;99.90;;;19.66;100.00;100173.16;3550079;40;20351;-83
2021/08/10 08:00:51;;;;;;;0.82;0.70;;;22.10;99.90;;;19.70;100.00;100179.81;3558370;39;20996;-83
2021/08/10 08:04:03;;;;;;;1.98;0.88;;;22.20;99.90;;;19.60;100.00;100171.34;3550347;40;20261;-83
2021/08/10 08:07:15;;;;;;;2.50;0.90;;;22.30;99.90;;;19.15;100.00;100160.53;3554946;39;20261;-83
2021/08/10 08:10:28;;;;;;;1.10;0.90;;;21.90;99.40;;;19.23;100.00;100137.72;3560535;39;20532;-83
2021/08/10 08:13:40;;;;;;;4.07;0.95;;;22.30;99.40;;;18.98;100.00;100126.81;3551920;40;20305;-84
2021/08/10 08:16:53;;;;;;;1.33;1.00;;;22.30;98.80;;;18.85;100.00;100110.63;3556229;39;21212;-82
2021/08/10 08:20:05;;;;;;;1.08;0.93;;;22.20;98.00;;;18.97;100.00;100114.31;3552609;39;20543;-83
2021/08/10 08:23:18;;;;;;;1.50;0.60;;;22.10;97.20;;;18.94;100.00;100125.56;3559281;39;20290;-83
2021/08/10 08:26:31;;;;;;;0.73;0.60;;;22.10;97.20;;;19.04;100.00;100122.41;3553937;40;20261;-82
2021/08/10 08:29:42;;;;;;;5.93;1.10;;;22.00;96.90;;;19.14;100.00;100131.75;3561038;40;20257;-83
2021/08/10 08:32:57;;;;;;;0.85;0.60;;;22.00;96.20;;;19.25;100.00;100136.47;3547864;40;20262;-82
2021/08/10 08:36:09;;;;;;;1.65;1.00;;;22.10;96.70;;;19.83;100.00;100130.00;3558975;39;20786;-83
2021/08/10 08:39:21;;;;;;;0.80;0.80;;;22.20;96.70;;;20.60;100.00;100144.94;3569928;39;20488;-83
2021/08/10 08:42:33;;;;;;;0.70;0.68;;;22.50;96.40;;;20.41;100.00;100188.41;3569114;39;20315;-82
2021/08/10 08:45:45;;;;;;;2.15;0.93;;;22.80;95.90;;;21.41;100.00;100207.13;3567288;39;20640;-82
2021/08/10 08:49:01;;;;;;;1.48;0.80;;;23.40;95.40;;;21.41;100.00;100254.22;3548068;40;20439;-82
2021/08/10 08:52:15;;;;;;;0.93;0.77;;;23.80;93.20;;;21.08;100.00;100316.34;3558102;39;20370;-83
2021/08/10 08:55:28;;;;;;;1.83;1.00;;;24.90;92.30;;;20.84;100.00;100314.50;3571056;39;20256;-84
2021/08/10 08:58:41;;;;;;;1.38;0.88;;;24.40;91.00;;;20.94;100.00;100317.53;3560588;39;20649;-84
2021/08/10 09:01:52;;;;;;;0.70;0.70;;;24.40;90.70;;;20.68;100.00;100321.34;3569917;39;20524;-86
2021/08/10 09:05:07;;;;;;;2.13;0.80;;;24.30;90.20;;;20.69;100.00;100301.25;3558482;39;21351;-84
2021/08/10 09:08:53;;;;;;;0.98;0.75;;;24.30;90.00;;;20.51;100.00;100307.50;3558968;39;20333;-84
2021/08/10 09:12:10;;;;;;;0.40;0.30;;;24.30;90.00;;;20.10;100.00;100305.28;3528242;40;20321;-83
2021/08/10 09:15:31;;;;;;;1.30;0.90;;;24.10;90.00;;;20.28;100.00;100305.34;3545236;40;20450;-84
2021/08/10 09:18:46;;;;;;;0.60;0.60;;;24.00;90.30;;;20.44;100.00;100304.00;3565363;39;20262;-85
2021/08/10 09:22:01;;;;;;;1.35;0.82;;;24.00;90.60;;;20.05;100.00;100300.50;3548451;40;20586;-85
2021/08/10 09:25:22;;;;;;;0.50;0.50;;;23.80;90.70;;;19.81;100.00;100295.84;3553711;40;20655;-81
2021/08/10 09:28:50;;;;;;;1.48;0.57;;;23.70;90.90;;;19.96;100.00;100296.38;3549154;40;20519;-83
2021/08/10 09:32:10;;;;;;;0.52;0.52;;;23.50;91.00;;;19.86;100.00;100281.63;3556153;40;20348;-83
2021/08/10 09:35:40;;;;;;;1.25;1.00;;;23.40;91.60;;;19.69;100.00;100278.59;3550750;40;20771;-82
2021/08/10 09:39:04;;;;;;;1.58;0.90;;;23.30;92.10;;;19.45;100.00;100271.16;3566374;40;20354;-82
2021/08/10 09:42:34;;;;;;;1.08;0.98;;;23.20;92.70;;;19.22;100.00;100271.69;3548450;40;20264;-82
2021/08/10 09:45:46;;;;;;;1.48;0.98;;;23.00;93.90;;;19.06;100.00;100264.84;3565323;40;20261;-82
2021/08/10 09:49:06;;;;;;;1.67;0.93;;;22.60;94.80;;;18.75;100.00;100254.75;3549378;40;20998;-83
2021/08/10 09:52:32;;;;;;;1.33;0.60;;;22.60;95.70;;;18.69;100.00;100238.47;3558861;39;20529;-82
2021/08/10 09:56:00;;;;;;;2.35;1.23;;;22.40;96.90;;;18.61;100.00;100223.28;3568858;39;20645;-84
2021/08/10 09:59:22;;;;;;;1.10;0.80;;;22.10;98.60;;;18.18;100.00;100215.59;3566328;39;20650;-84
2021/08/10 10:02:44;;;;;;;0.95;0.80;;;21.70;99.90;;;17.87;100.00;100209.97;3560273;40;20510;-84
2021/08/10 10:06:02;;;;;;;0.85;0.80;;;21.40;99.90;;;17.68;100.00;100211.59;3549058;40;20406;-84
2021/08/10 10:09:16;;;;;;;1.02;0.95;;;21.10;99.90;;;17.80;100.00;100211.84;3557547;40;20746;-83
2021/08/10 10:12:31;;;;;;;1.40;0.85;;;20.70;99.90;;;17.66;100.00;100212.88;3552603;40;20271;-85
2021/08/10 10:15:43;;;;;;;1.85;1.08;;;20.60;99.90;;;17.64;100.00;100215.78;3559061;40;20296;-84
2021/08/10 10:18:57;;;;;;;1.63;1.30;;;20.40;99.90;;;17.55;100.00;100217.00;3563244;40;20328;-81
2021/08/10 10:22:16;;;;;;;3.05;1.08;;;20.30;99.90;;;17.48;100.00;100198.03;3559150;40;20392;-82
2021/08/10 10:25:33;;;;;;;2.75;1.17;;;20.30;99.90;;;17.36;100.00;100199.66;3561305;40;21354;-83
2021/08/10 10:28:48;;;;;;;0.93;0.75;;;20.20;99.90;;;18.01;100.00;100200.81;3568333;39;20304;-84
2021/08/10 10:32:00;;;;;;;2.05;1.00;;;20.20;99.90;;;18.06;100.00;100214.56;3568263;39;20935;-84
2021/08/10 10:35:12;;;;;;;1.50;1.02;;;20.40;99.90;;;17.82;100.00;100229.53;3562440;40;20330;-82
2021/08/10 10:38:26;;;;;;;1.13;1.00;;;20.80;99.90;;;17.65;100.00;100240.97;3569917;39;20249;-83
2021/08/10 10:41:41;;;;;;;0.60;0.60;;;20.60;99.90;;;17.40;100.00;100248.78;3559145;40;20245;-84
2021/08/10 10:45:12;;;;;;;1.77;1.17;;;20.50;99.90;;;17.30;100.00;100256.44;3557500;40;20277;-82
2021/08/10 10:48:40;;;;;;;2.08;0.68;;;20.50;99.90;;;17.10;100.00;100268.00;3544288;40;20255;-84
2021/08/10 10:51:54;;;;;;;0.75;0.75;;;20.40;99.90;;;16.76;100.00;100268.88;3562978;40;20250;-84
2021/08/10 10:55:11;;;;;;;1.65;0.63;;;20.40;99.90;;;16.47;100.00;100279.84;3561049;39;20577;-83
2021/08/10 10:58:47;;;;;;;0.57;0.50;;;20.20;99.90;;;16.30;100.00;100282.00;3552167;40;20285;-85
2021/08/10 11:02:01;;;;;;;0.98;0.77;;;19.90;99.90;;;16.05;100.00;100203.31;3538045;40;20261;-84
2021/08/10 11:04:37;;;;;;;4.22;1.23;;;19.60;99.90;;;15.64;100.00;100172.66;3923737;22;20365;-88
2021/08/10 11:07:36;;;;;;;2.90;0.70;;;19.90;99.90;;;15.34;100.00;100163.81;2953963;22;21694;31
2021/08/10 11:10:05;;;;;;;1.92;0.88;;;18.50;99.90;;;15.11;100.00;100120.88;2372867;22;22882;31
2021/08/10 11:12:44;;;;;;;1.30;0.95;;;18.00;99.90;;;14.99;100.00;100073.91;2591694;22;20420;-85
2021/08/10 11:15:17;;;;;;;0.70;0.70;;;17.60;99.90;;;14.84;100.00;100054.25;3732479;22;20879;-85
2021/08/10 11:18:23;;;;;;;1.63;0.77;;;17.30;99.90;;;14.79;100.00;100022.53;3801314;22;21367;-85
2021/08/10 11:21:14;;;;;;;5.57;1.00;;;17.00;99.90;;;14.83;100.00;100007.66;3642555;22;21051;-85
2021/08/10 11:23:42;;;;;;;0.90;0.77;;;17.80;99.90;;;14.83;100.00;99886.44;3681358;22;23992;-86
2021/08/10 11:26:46;;;;;;;2.70;1.15;;;16.80;99.90;;;14.67;100.00;99879.47;3679046;22;20695;-86
2021/08/10 11:29:41;;;;;;;0.93;0.82;;;16.70;99.90;;;14.77;100.00;99942.94;3684402;22;20262;-85
2021/08/10 11:32:37;;;;;;;2.30;0.82;;;17.60;99.90;;;14.70;100.00;99996.75;3645920;22;20522;-85
2021/08/10 11:35:05;;;;;;;1.15;0.88;;;16.50;99.90;;;14.82;100.00;100032.09;3684930;22;20242;31
2021/08/10 11:37:34;;;;;;;2.95;1.45;;;16.50;99.90;;;14.70;100.00;100058.69;3580911;39;20395;-85
2021/08/10 11:40:13;;;;;;;1.40;1.13;;;16.40;99.90;;;14.82;100.00;100084.09;3727732;22;20286;-86
2021/08/10 11:42:42;;;;;;;1.60;1.05;;;16.40;99.90;;;14.74;100.00;100108.44;2981317;22;20212;-85
2021/08/10 11:45:11;;;;;;;1.23;0.98;;;16.40;99.90;;;14.67;100.00;100119.16;3685670;22;20247;-85
2021/08/10 11:48:24;;;;;;;2.90;0.98;;;16.30;99.90;;;14.85;100.00;100132.19;3399546;22;20456;-85
2021/08/10 11:51:15;;;;;;;1.40;1.08;;;16.30;99.90;;;14.94;100.00;100146.41;3685475;22;20811;-86
2021/08/10 11:53:44;;;;;;;4.95;1.40;;;16.30;99.90;;;14.90;100.00;100155.88;3635757;22;20253;-83
2021/08/10 11:56:29;;;;;;;2.17;1.35;;;16.30;99.90;;;14.98;100.00;100180.84;3684909;22;22170;-84
2021/08/10 11:58:58;;;;;;;2.13;1.38;;;16.30;99.90;;;15.04;100.00;100193.56;3685405;22;20487;-86
2021/08/10 12:01:26;;;;;;;1.83;1.60;;;16.40;99.90;;;15.03;100.00;100182.97;2091442;22;22677;31
2021/08/10 12:03:54;;;;;;;4.25;2.13;;;17.30;99.90;;;15.10;100.00;100192.78;2554895;22;21021;-85
2021/08/10 12:06:28;;;;;;;6.28;3.88;;;16.80;99.90;;;15.16;100.00;100206.56;3695363;22;21201;-86
2021/08/10 12:09:37;;;;;;;2.40;2.15;;;16.40;99.90;;;15.25;100.00;100197.31;3563306;22;22150;-86
2021/08/10 12:12:52;;;;;;;2.78;2.35;;;16.50;99.90;;;15.39;100.00;100199.13;3596722;39;20232;-85
2021/08/10 12:16:17;;;;;;;1.95;1.20;;;16.60;99.90;;;15.40;100.00;100161.19;3594962;39;20489;-86
2021/08/10 12:19:37;;;;;;;23.15;12.95;;;16.70;99.90;;;16.13;100.00;100153.75;3640904;22;20499;-85
2021/08/10 12:22:19;;;;;;;2.47;1.75;;;16.90;99.90;;;16.45;100.00;100150.41;3552422;22;20268;-84
2021/08/10 12:24:50;;;;;;;3.15;2.03;;;17.30;99.90;;;17.33;100.00;100124.34;3833746;22;20264;-83
2021/08/10 12:27:28;;;;;;;5.88;1.65;;;17.90;99.90;;;16.99;100.00;100070.41;3633625;22;20514;-84
2021/08/10 12:29:55;;;;;;;1.45;1.10;;;19.30;99.90;;;17.31;100.00;100010.13;4014355;22;23449;-86
2021/08/10 12:32:59;;;;;;;28.80;16.52;;;19.70;99.90;;;17.81;100.00;99959.09;3638310;22;20356;-83
2021/08/10 12:36:31;;;;;;;5.07;3.53;;;19.10;99.90;;;18.27;100.00;99888.53;3646040;22;20393;-83
2021/08/10 12:39:45;;;;;;;1.83;1.25;;;19.60;99.90;;;18.32;100.00;99796.59;3606947;39;21121;-83
2021/08/10 12:43:04;;;;;;;1.90;1.05;;;20.30;99.90;;;18.48;100.00;99735.63;3597431;39;20264;-85
2021/08/10 12:46:22;;;;;;;4.60;1.50;;;21.10;99.90;;;18.73;100.00;99668.69;3643019;22;20333;-85
2021/08/10 12:49:11;;;;;;;2.58;0.98;;;21.10;99.90;;;18.81;100.00;99614.19;3666165;22;21407;-83
2021/08/10 12:51:56;;;;;;;1.60;1.35;;;21.50;99.90;;;18.31;100.00;99579.09;3640067;22;20722;-87
2021/08/10 12:54:25;;;;;;;1.85;0.82;;;21.70;99.90;;;17.84;100.00;99566.25;3656079;22;21124;-82
2021/08/10 12:56:53;;;;;;;2.20;1.42;;;21.60;99.90;;;18.38;100.00;99562.78;3615629;39;20777;-82
2021/08/10 12:59:43;;;;;;;2.33;1.02;;;21.80;99.90;;;18.46;100.00;99548.94;3621222;39;21011;-85
2021/08/10 13:02:12;;;;;;;2.28;0.70;;;21.60;99.90;;;18.91;100.00;99540.47;3600276;39;20268;-86
2021/08/10 13:04:56;;;;;;;1.23;0.85;;;21.80;99.90;;;19.10;100.00;99538.50;3637982;22;20683;-82
2021/08/10 13:07:23;;;;;;;1.02;0.93;;;22.00;99.90;;;19.49;100.00;99528.97;3609147;39;20320;-84